createdAt,value
2018-02-22T00:01:46.857Z,14.20
2018-02-22T00:04:15.270Z,17.77
2018-02-22T00:06:43.681Z,16.90
2018-02-22T00:09:12.536Z,17.00
2018-02-22T00:11:41.408Z,17.10
2018-02-22T00:14:10.591Z,16.10
2018-02-22T00:16:38.991Z,17.47
2018-02-22T00:19:08.162Z,14.17
2018-02-22T00:21:36.555Z,16.67
2018-02-22T00:24:05.728Z,16.57
2018-02-22T00:26:34.136Z,15.47
2018-02-22T00:29:03.313Z,17.40
2018-02-22T00:31:31.742Z,16.40
2018-02-22T00:34:00.196Z,16.10
2018-02-22T00:36:28.616Z,16.90
2018-02-22T00:38:57.028Z,16.07
2018-02-22T00:41:25.451Z,16.67
2018-02-22T00:43:53.874Z,17.67
2018-02-22T00:46:22.283Z,17.27
2018-02-22T00:48:50.686Z,16.77
2018-02-22T00:51:19.112Z,15.27
2018-02-22T00:53:47.510Z,17.37
2018-02-22T00:56:16.696Z,16.53
2018-02-22T00:58:45.884Z,15.83
2018-02-22T01:01:14.279Z,17.00
2018-02-22T01:03:43.484Z,16.50
2018-02-22T01:06:12.459Z,16.93
2018-02-22T01:08:41.312Z,15.80
2018-02-22T01:11:09.770Z,16.53
2018-02-22T01:13:38.185Z,16.13
2018-02-22T01:16:06.595Z,14.50
2018-02-22T01:18:35.781Z,15.43
2018-02-22T01:21:04.986Z,16.73
2018-02-22T01:23:34.185Z,16.43
2018-02-22T01:26:03.364Z,14.87
2018-02-22T01:28:32.528Z,16.57
2018-02-22T01:31:00.960Z,15.33
2018-02-22T01:33:29.368Z,15.77
2018-02-22T01:35:57.811Z,16.77
2018-02-22T01:38:27.004Z,16.70
2018-02-22T01:40:56.189Z,17.17
2018-02-22T01:43:25.343Z,16.50
2018-02-22T01:45:53.770Z,15.90
2018-02-22T01:48:22.932Z,17.90
2018-02-22T01:50:51.389Z,14.97
2018-02-22T01:53:19.835Z,16.77
2018-02-22T01:55:49.000Z,15.53
2018-02-22T01:58:17.390Z,15.97
2018-02-22T02:00:46.600Z,12.50
2018-02-22T02:03:15.798Z,16.60
2018-02-22T02:05:44.219Z,17.47
2018-02-22T02:08:13.727Z,16.43
2018-02-22T02:10:42.135Z,16.07
2018-02-22T02:13:10.606Z,16.93
2018-02-22T02:15:39.025Z,16.23
2018-02-22T02:18:07.441Z,16.40
2018-02-22T02:20:35.885Z,15.43
2018-02-22T02:23:04.283Z,16.13
2018-02-22T02:25:32.904Z,16.23
2018-02-22T02:28:06.837Z,15.17
2018-02-22T02:30:36.029Z,16.40
2018-02-22T02:33:05.214Z,16.13
2018-02-22T02:35:33.606Z,16.63
2018-02-22T02:38:02.798Z,16.63
2018-02-22T02:40:32.001Z,16.13
2018-02-22T02:43:00.434Z,15.70
2018-02-22T02:45:28.854Z,16.40
2018-02-22T02:47:58.024Z,14.20
2018-02-22T02:50:26.442Z,16.10
2018-02-22T02:52:54.855Z,15.23
2018-02-22T02:55:23.553Z,14.05
2018-02-22T02:57:51.954Z,16.70
2018-02-22T03:00:20.364Z,17.20
2018-02-22T03:02:48.778Z,13.43
2018-02-22T03:05:17.220Z,15.60
2018-02-22T03:07:45.618Z,16.17
2018-02-22T03:10:14.009Z,13.20
2018-02-22T03:12:43.447Z,15.53
2018-02-22T03:15:11.853Z,14.20
2018-02-22T03:17:40.256Z,15.50
2018-02-22T03:20:08.672Z,15.67
2018-02-22T03:22:37.082Z,15.70
2018-02-22T03:25:05.619Z,15.23
2018-02-22T03:27:34.016Z,15.53
2018-02-22T03:30:02.475Z,16.17
2018-02-22T03:32:30.961Z,16.33
2018-02-22T03:34:59.402Z,16.87
2018-02-22T03:37:27.886Z,14.90
2018-02-22T03:39:56.384Z,16.10
2018-02-22T03:42:24.786Z,16.03
2018-02-22T03:44:53.217Z,14.30
2018-02-22T03:47:22.682Z,17.42
2018-02-22T03:49:51.854Z,16.63
2018-02-22T03:52:20.277Z,16.83
2018-02-22T03:54:48.973Z,16.62
2018-02-22T03:57:18.415Z,16.62
2018-02-22T03:59:47.104Z,17.23
2018-02-22T04:02:15.327Z,16.23
2018-02-22T04:04:44.003Z,16.17
2018-02-22T04:07:13.194Z,17.17
2018-02-22T04:09:41.614Z,16.30
2018-02-22T04:12:10.288Z,17.85
2018-02-22T04:14:38.708Z,18.40
2018-02-22T04:17:07.941Z,18.48
2018-02-22T04:19:37.905Z,18.90
2018-02-22T04:22:06.320Z,17.23
2018-02-22T04:24:35.644Z,17.87
2018-02-22T04:27:04.310Z,17.87
2018-02-22T04:29:33.008Z,17.62
2018-02-22T04:32:01.446Z,19.47
2018-02-22T04:34:30.133Z,17.75
2018-02-22T04:36:58.827Z,20.12
2018-02-22T04:39:28.013Z,18.63
2018-02-22T04:41:56.783Z,18.83
2018-02-22T04:44:25.209Z,19.57
2018-02-22T04:46:54.387Z,17.87
2018-02-22T04:49:22.784Z,18.70
2018-02-22T04:51:51.192Z,18.17
2018-02-22T04:54:19.601Z,18.63
2018-02-22T04:56:48.317Z,17.02
2018-02-22T04:59:17.501Z,18.80
2018-02-22T05:01:46.197Z,19.90
2018-02-22T05:04:15.383Z,17.87
2018-02-22T05:06:44.112Z,13.43
2018-02-22T05:09:13.583Z,19.58
2018-02-22T05:11:42.270Z,19.42
2018-02-22T05:14:11.471Z,19.27
2018-02-22T05:16:40.031Z,18.87
2018-02-22T05:19:08.746Z,18.52
2018-02-22T05:21:38.116Z,18.92
2018-02-22T05:24:07.011Z,18.97
2018-02-22T05:26:37.189Z,18.30
2018-02-22T05:29:05.654Z,16.27
2018-02-22T05:31:34.103Z,18.13
2018-02-22T05:34:02.828Z,19.20
2018-02-22T05:36:31.516Z,18.60
2018-02-22T05:39:02.633Z,18.10
2018-02-22T05:41:31.059Z,19.30
2018-02-22T05:43:59.733Z,17.67
2018-02-22T05:46:28.444Z,17.83
2018-02-22T05:48:57.132Z,15.48
2018-02-22T05:51:25.821Z,19.15
2018-02-22T05:53:54.528Z,17.87
2018-02-22T05:56:23.220Z,17.45
2018-02-22T05:58:51.932Z,18.87
2018-02-22T06:01:20.687Z,17.87
2018-02-22T06:03:49.359Z,19.52
2018-02-22T06:06:18.573Z,19.23
2018-02-22T06:08:46.979Z,18.17
2018-02-22T06:11:15.659Z,17.80
2018-02-22T06:13:44.095Z,17.60
2018-02-22T06:16:13.312Z,19.47
2018-02-22T06:18:41.997Z,19.52
2018-02-22T06:21:10.734Z,18.83
2018-02-22T06:23:39.136Z,19.77
2018-02-22T06:26:09.432Z,19.07
2018-02-22T06:28:37.843Z,18.80
2018-02-22T06:31:08.097Z,19.30
2018-02-22T06:33:37.127Z,19.40
2018-02-22T06:36:05.613Z,17.93
2018-02-22T06:38:34.020Z,19.57
2018-02-22T06:41:03.220Z,18.40
2018-02-22T06:43:32.379Z,19.40
2018-02-22T06:46:00.778Z,17.60
2018-02-22T06:48:29.221Z,18.27
2018-02-22T06:50:57.636Z,18.90
2018-02-22T06:53:27.718Z,18.30
2018-02-22T06:55:56.127Z,19.43
2018-02-22T06:58:24.519Z,18.50
2018-02-22T07:00:53.701Z,19.03
2018-02-22T07:03:22.866Z,19.00
2018-02-22T07:05:51.278Z,18.40
2018-02-22T07:08:19.688Z,17.60
2018-02-22T07:10:48.103Z,17.27
2018-02-22T07:13:16.508Z,18.17
2018-02-22T07:15:44.919Z,18.53
2018-02-22T07:18:13.325Z,17.13
2018-02-22T07:20:42.040Z,19.23
2018-02-22T07:23:16.788Z,17.47
2018-02-22T07:25:39.016Z,18.87
2018-02-22T07:28:09.563Z,18.85
2018-02-22T07:30:38.747Z,17.47
2018-02-22T07:33:07.908Z,17.53
2018-02-22T07:35:36.959Z,18.43
2018-02-22T07:38:07.129Z,19.07
2018-02-22T07:40:35.771Z,18.00
2018-02-22T07:43:04.167Z,18.47
2018-02-22T07:45:32.598Z,17.77
2018-02-22T07:48:01.769Z,18.90
2018-02-22T07:50:30.237Z,19.27
2018-02-22T07:52:58.698Z,16.80
2018-02-22T07:55:27.100Z,20.63
2018-02-22T07:57:55.501Z,17.63
2018-02-22T08:00:23.922Z,17.43
2018-02-22T08:02:52.323Z,17.90
2018-02-22T08:05:21.488Z,18.13
2018-02-22T08:07:49.891Z,19.37
2018-02-22T08:10:18.292Z,15.67
2018-02-22T08:12:46.688Z,17.20
2018-02-22T08:15:15.118Z,17.63
2018-02-22T08:17:43.526Z,17.57
2018-02-22T08:20:11.938Z,17.10
2018-02-22T08:22:42.169Z,18.60
2018-02-22T08:25:10.573Z,16.70
2018-02-22T08:27:39.006Z,18.40
2018-02-22T08:30:08.078Z,15.98
2018-02-22T08:32:37.219Z,16.73
2018-02-22T08:35:05.713Z,14.83
2018-02-22T08:37:34.118Z,16.53
2018-02-22T08:40:02.625Z,16.20
2018-02-22T08:42:32.226Z,18.63
2018-02-22T08:45:00.851Z,17.47
2018-02-22T08:47:29.324Z,17.30
2018-02-22T08:49:58.583Z,17.73
2018-02-22T08:52:27.694Z,16.57
2018-02-22T08:54:56.259Z,17.47
2018-02-22T08:57:24.865Z,17.37
2018-02-22T08:59:53.394Z,14.07
2018-02-22T09:02:21.952Z,16.00
2018-02-22T09:04:50.442Z,15.80
2018-02-22T09:07:18.953Z,16.67
2018-02-22T09:09:47.456Z,16.33
2018-02-22T09:12:16.019Z,14.90
2018-02-22T09:14:44.522Z,16.40
2018-02-22T09:17:13.058Z,16.73
2018-02-22T09:19:41.557Z,9.17
2018-02-22T09:22:10.036Z,16.67
2018-02-22T09:24:38.546Z,15.90
2018-02-22T09:27:07.089Z,15.63
2018-02-22T09:29:36.358Z,15.00
2018-02-22T09:32:05.653Z,16.10
2018-02-22T09:34:34.848Z,13.93
2018-02-22T09:37:04.102Z,15.60
2018-02-22T09:39:33.275Z,15.17
2018-02-22T09:42:01.760Z,14.23
2018-02-22T09:44:30.248Z,14.37
2018-02-22T09:47:00.203Z,13.37
2018-02-22T09:49:28.733Z,15.33
2018-02-22T09:51:58.047Z,15.97
2018-02-22T09:54:27.794Z,15.30
2018-02-22T09:56:56.301Z,14.13
2018-02-22T09:59:24.943Z,13.27
2018-02-22T10:01:54.222Z,15.00
2018-02-22T10:04:24.393Z,15.53
2018-02-22T10:06:53.831Z,15.60
2018-02-22T10:09:22.372Z,9.70
2018-02-22T10:11:54.504Z,11.87
2018-02-22T10:14:23.018Z,15.23
2018-02-22T10:16:51.561Z,13.37
2018-02-22T10:19:22.196Z,15.70
2018-02-22T10:21:50.778Z,14.27
2018-02-22T10:24:19.316Z,15.47
2018-02-22T10:26:48.705Z,14.40
2018-02-22T10:29:17.550Z,14.60
2018-02-22T10:31:45.958Z,16.37
2018-02-22T10:34:16.003Z,9.37
2018-02-22T10:36:44.542Z,15.03
2018-02-22T10:39:13.037Z,14.50
2018-02-22T10:41:42.973Z,14.67
2018-02-22T10:44:12.393Z,14.53
2018-02-22T10:46:41.665Z,14.13
2018-02-22T10:49:10.159Z,14.83
2018-02-22T10:51:39.366Z,14.43
2018-02-22T10:54:07.929Z,14.30
2018-02-22T10:56:36.528Z,8.83
2018-02-22T10:59:07.887Z,15.37
2018-02-22T11:01:41.779Z,14.87
2018-02-22T11:04:11.145Z,13.97
2018-02-22T11:06:39.654Z,14.37
2018-02-22T11:09:08.986Z,6.67
2018-02-22T11:11:37.486Z,14.27
2018-02-22T11:14:06.672Z,11.77
2018-02-22T11:16:36.145Z,6.47
2018-02-22T11:19:06.667Z,14.20
2018-02-22T11:21:35.944Z,13.60
2018-02-22T11:24:05.813Z,12.73
2018-02-22T11:26:35.499Z,14.53
2018-02-22T11:29:04.631Z,13.17
2018-02-22T11:31:33.713Z,13.47
2018-02-22T11:34:02.211Z,12.90
2018-02-22T11:36:32.567Z,9.87
2018-02-22T11:39:05.380Z,14.17
2018-02-22T11:41:35.152Z,13.23
2018-02-22T11:44:03.461Z,11.60
2018-02-22T11:49:06.927Z,13.13
2018-02-22T11:51:36.257Z,13.47
2018-02-22T11:54:09.084Z,12.47
2018-02-22T11:56:38.648Z,12.33
2018-02-22T11:59:07.202Z,11.10
2018-02-22T12:01:37.539Z,12.27
2018-02-22T12:04:07.609Z,12.20
2018-02-22T12:06:36.339Z,11.83
2018-02-22T12:09:06.150Z,12.47
2018-02-22T12:11:35.888Z,11.23
2018-02-22T12:14:04.929Z,11.93
2018-02-22T12:16:35.127Z,10.57
2018-02-22T12:19:04.828Z,12.23
2018-02-22T12:21:33.762Z,6.70
2018-02-22T12:24:02.278Z,9.23
2018-02-22T12:26:30.812Z,10.70
2018-02-22T12:28:59.829Z,10.93
2018-02-22T12:31:33.001Z,11.37
2018-02-22T12:34:03.050Z,12.33
2018-02-22T12:36:32.596Z,11.13
2018-02-22T12:41:37.855Z,9.90
2018-02-22T12:44:08.291Z,10.83
2018-02-22T12:46:36.797Z,10.70
2018-02-22T12:49:07.070Z,11.83
2018-02-22T12:51:38.415Z,11.67
2018-02-22T12:54:10.871Z,12.00
2018-02-22T12:56:39.939Z,11.30
2018-02-22T12:59:08.458Z,11.60
2018-02-22T13:01:37.860Z,10.27
2018-02-22T13:04:07.301Z,11.17
2018-02-22T13:06:36.610Z,11.40
2018-02-22T13:09:05.727Z,7.17
2018-02-22T13:11:38.798Z,11.57
2018-02-22T13:14:08.582Z,10.17
2018-02-22T13:16:37.129Z,12.10
2018-02-22T13:19:07.204Z,10.70
2018-02-22T13:21:36.572Z,10.03
2018-02-22T13:24:05.324Z,9.93
2018-02-22T13:26:35.824Z,10.23
2018-02-22T13:29:05.347Z,10.87
2018-02-22T13:31:37.115Z,11.70
2018-02-22T13:34:16.739Z,10.43
2018-02-22T13:36:46.036Z,10.80
2018-02-22T13:39:14.532Z,9.57
2018-02-22T13:41:47.940Z,10.40
2018-02-22T13:44:28.040Z,10.40
2018-02-22T13:46:56.524Z,10.17
2018-02-22T13:49:38.883Z,10.40
2018-02-22T13:52:07.377Z,8.03
2018-02-22T13:54:37.014Z,9.83
2018-02-22T13:57:12.509Z,10.13
2018-02-22T13:59:42.138Z,10.97
2018-02-22T14:02:27.614Z,10.57
2018-02-22T14:04:56.535Z,10.20
2018-02-22T14:07:25.122Z,10.70
2018-02-22T14:09:58.360Z,10.00
2018-02-22T14:12:27.169Z,9.77
2018-02-22T14:17:35.830Z,9.87
2018-02-22T14:20:07.914Z,10.30
2018-02-22T14:22:37.848Z,9.47
2018-02-22T14:27:44.500Z,10.40
2018-02-22T14:30:14.888Z,10.23
2018-02-22T14:32:54.879Z,9.83
2018-02-22T14:35:25.392Z,9.87
2018-02-22T14:38:03.489Z,10.40
2018-02-22T14:40:32.830Z,10.03
2018-02-22T14:43:01.471Z,9.50
2018-02-22T14:45:32.904Z,10.10
2018-02-22T14:48:05.847Z,9.37
2018-02-22T14:50:35.902Z,9.47
2018-02-22T14:53:05.745Z,10.40
2018-02-22T14:55:38.150Z,9.77
2018-02-22T14:58:14.592Z,9.60
2018-02-22T15:00:49.382Z,9.63
2018-02-22T15:03:19.909Z,9.93
2018-02-22T15:05:51.952Z,10.53
2018-02-22T15:08:21.281Z,10.47
2018-02-22T15:10:50.458Z,10.63
2018-02-22T15:13:19.877Z,10.97
2018-02-22T15:15:49.165Z,10.23
2018-02-22T15:18:20.496Z,9.77
2018-02-22T15:20:49.821Z,10.13
2018-02-22T15:25:52.322Z,11.40
2018-02-22T15:28:26.226Z,10.37
2018-02-22T15:30:54.698Z,10.77
2018-02-22T15:33:26.468Z,11.10
2018-02-22T15:35:57.339Z,10.90
2018-02-22T15:38:26.779Z,11.20
2018-02-22T15:40:56.068Z,11.80
2018-02-22T15:43:24.629Z,11.23
2018-02-22T15:45:53.233Z,11.03
2018-02-22T15:48:21.717Z,11.10
2018-02-22T15:50:51.034Z,11.40
2018-02-22T15:53:28.540Z,11.80
2018-02-22T16:02:08.358Z,15.90
2018-02-22T16:04:37.034Z,12.63
2018-02-22T16:07:05.497Z,26.47
2018-02-22T16:09:34.766Z,21.17
2018-02-22T16:12:03.173Z,25.53
2018-02-22T16:14:32.795Z,16.23
2018-02-22T16:17:01.204Z,13.87
2018-02-22T16:19:29.608Z,14.50
2018-02-22T16:21:58.058Z,16.40
2018-02-22T16:24:26.478Z,15.90
2018-02-22T16:26:54.910Z,12.60
2018-02-22T16:29:23.325Z,11.60
2018-02-22T16:31:51.794Z,13.63
2018-02-22T16:34:20.204Z,11.53
2018-02-22T16:36:49.383Z,12.20
2018-02-22T16:39:17.815Z,12.27
2018-02-22T16:41:46.212Z,12.10
2018-02-22T16:44:15.397Z,12.23
2018-02-22T16:46:43.804Z,11.10
2018-02-22T16:49:12.228Z,14.87
2018-02-22T16:51:40.649Z,24.03
2018-02-22T16:54:09.082Z,19.20
2018-02-22T16:56:38.288Z,18.23
2018-02-22T16:59:06.688Z,24.17
2018-02-22T17:01:35.256Z,33.33
2018-02-22T17:04:03.686Z,31.50
2018-02-22T17:06:32.858Z,16.73
2018-02-22T17:09:01.261Z,15.73
2018-02-22T17:11:30.454Z,21.97
2018-02-22T17:13:59.619Z,20.73
2018-02-22T17:16:28.052Z,19.47
2018-02-22T17:18:56.456Z,17.20
2018-02-22T17:21:24.862Z,11.90
2018-02-22T17:23:53.310Z,12.93
2018-02-22T17:26:27.234Z,11.37
2018-02-22T17:29:02.030Z,10.07
2018-02-22T17:31:36.247Z,9.90
2018-02-22T17:34:05.961Z,24.27
2018-02-22T17:36:39.840Z,12.00
2018-02-22T17:39:08.833Z,16.63
2018-02-22T17:41:41.417Z,23.90
2018-02-22T17:44:09.637Z,9.87
2018-02-22T17:46:38.376Z,10.13
2018-02-22T17:49:06.779Z,9.73
2018-02-22T17:51:35.249Z,9.93
2018-02-22T17:54:03.658Z,10.37
2018-02-22T17:56:31.878Z,10.17
2018-02-22T17:59:00.862Z,9.20
2018-02-22T18:01:29.861Z,8.83
2018-02-22T18:03:58.133Z,9.00
2018-02-22T18:06:27.108Z,9.07
2018-02-22T18:08:55.328Z,19.03
2018-02-22T18:11:23.546Z,11.93
2018-02-22T18:13:51.985Z,10.87
2018-02-22T18:16:20.410Z,10.93
2018-02-22T18:18:48.838Z,11.87
2018-02-22T18:21:17.241Z,13.13
2018-02-22T18:23:45.667Z,13.00
2018-02-22T18:26:14.073Z,31.37
2018-02-22T18:28:42.344Z,12.77
2018-02-22T18:31:10.750Z,15.23
2018-02-22T18:33:38.960Z,15.47
2018-02-22T18:36:07.943Z,12.53
2018-02-22T18:38:43.254Z,13.90
2018-02-22T18:41:11.490Z,18.63
2018-02-22T18:43:40.824Z,13.03
2018-02-22T18:46:09.228Z,10.43
2018-02-22T18:48:38.229Z,9.83
2018-02-22T18:51:08.225Z,9.07
2018-02-22T18:53:37.395Z,9.20
2018-02-22T18:56:06.799Z,8.80
2018-02-22T18:58:35.264Z,8.63
2018-02-22T19:01:03.664Z,9.07
2018-02-22T19:03:32.080Z,9.17
2018-02-22T19:06:01.253Z,8.97
2018-02-22T19:08:29.698Z,9.33
2018-02-22T19:10:58.119Z,8.83
2018-02-22T19:13:26.534Z,8.30
2018-02-22T19:15:54.974Z,10.13
2018-02-22T19:18:23.395Z,9.20
2018-02-22T19:20:51.809Z,9.57
2018-02-22T19:23:20.226Z,9.23
2018-02-22T19:25:49.206Z,9.83
2018-02-22T19:28:18.389Z,8.90
2018-02-22T19:30:46.798Z,9.40
2018-02-22T19:33:15.224Z,8.80
2018-02-22T19:35:43.626Z,8.97
2018-02-22T19:38:12.792Z,8.30
2018-02-22T19:40:41.208Z,8.57
2018-02-22T19:43:10.358Z,8.93
2018-02-22T19:45:38.772Z,8.43
2018-02-22T19:48:07.871Z,8.50
2018-02-22T19:50:36.880Z,8.70
2018-02-22T19:53:06.753Z,8.87
2018-02-22T19:55:35.374Z,9.07
2018-02-22T19:58:04.549Z,8.97
2018-02-22T20:00:33.708Z,9.57
2018-02-22T20:03:02.120Z,10.17
2018-02-22T20:05:30.548Z,9.20
2018-02-22T20:07:58.966Z,9.63
2018-02-22T20:10:27.375Z,8.97
2018-02-22T20:12:56.543Z,8.97
2018-02-22T20:15:24.952Z,8.73
2018-02-22T20:17:54.107Z,9.47
2018-02-22T20:20:22.758Z,9.07
2018-02-22T20:22:51.152Z,9.37
2018-02-22T20:25:19.218Z,8.40
2018-02-22T20:27:47.617Z,8.80
2018-02-22T20:30:16.042Z,7.53
2018-02-22T20:32:44.454Z,8.87
2018-02-22T20:35:12.878Z,8.57
2018-02-22T20:37:42.083Z,8.97
2018-02-22T20:40:10.654Z,8.20
2018-02-22T20:42:39.664Z,8.40
2018-02-22T20:45:08.893Z,8.70
2018-02-22T20:47:37.961Z,8.00
2018-02-22T20:50:06.717Z,7.77
2018-02-22T20:55:37.328Z,8.47
2018-02-22T20:58:06.205Z,8.20
2018-02-22T21:00:34.616Z,8.90
2018-02-22T21:03:02.831Z,8.33
2018-02-22T21:05:31.232Z,8.77
2018-02-22T21:07:59.624Z,8.63
2018-02-22T21:10:28.027Z,8.07
2018-02-22T21:12:56.464Z,8.53
2018-02-22T21:15:24.857Z,7.80
2018-02-22T21:17:54.032Z,8.57
2018-02-22T21:20:22.442Z,8.70
2018-02-22T21:22:50.847Z,9.03
2018-02-22T21:25:20.004Z,8.43
2018-02-22T21:27:48.409Z,8.10
2018-02-22T21:30:16.162Z,8.43
2018-02-22T21:32:44.575Z,8.47
2018-02-22T21:35:12.970Z,8.47
2018-02-22T21:37:41.384Z,8.27
2018-02-22T21:40:09.785Z,8.10
2018-02-22T21:42:38.501Z,8.20
2018-02-22T21:45:06.932Z,8.00
2018-02-22T21:47:35.414Z,7.83
2018-02-22T21:50:03.840Z,7.23
2018-02-22T21:52:32.051Z,8.03
2018-02-22T21:55:00.455Z,7.90
2018-02-22T21:57:28.876Z,8.10
2018-02-22T21:59:57.268Z,7.57
2018-02-22T22:02:25.672Z,7.43
2018-02-22T22:04:54.064Z,7.90
2018-02-22T22:07:22.478Z,7.83
2018-02-22T22:09:50.879Z,7.33
2018-02-22T22:12:19.303Z,7.80
2018-02-22T22:14:47.780Z,7.30
2018-02-22T22:17:16.232Z,8.00
2018-02-22T22:19:45.566Z,7.70
2018-02-22T22:22:13.976Z,7.50
2018-02-22T22:24:42.103Z,7.73
2018-02-22T22:27:10.511Z,8.10
2018-02-22T22:29:39.670Z,7.93
2018-02-22T22:32:08.970Z,7.23
2018-02-22T22:34:38.176Z,7.30
2018-02-22T22:37:06.588Z,7.13
2018-02-22T22:39:35.046Z,6.33
2018-02-22T22:42:04.228Z,7.30
2018-02-22T22:44:32.636Z,7.87
2018-02-22T22:47:01.814Z,7.20
2018-02-22T22:49:30.991Z,7.60
2018-02-22T22:51:59.388Z,6.67
2018-02-22T22:54:28.563Z,6.83
2018-02-22T22:56:56.954Z,6.57
2018-02-22T22:59:25.455Z,6.97
2018-02-22T23:01:54.623Z,6.90
2018-02-22T23:04:23.032Z,7.60
2018-02-22T23:06:52.027Z,6.77
2018-02-22T23:09:20.226Z,7.37
2018-02-22T23:11:48.453Z,7.07
2018-02-22T23:14:17.615Z,7.03
2018-02-22T23:16:46.040Z,6.53
2018-02-22T23:19:15.201Z,6.70
2018-02-22T23:21:43.596Z,6.60
2018-02-22T23:24:12.020Z,6.57
2018-02-22T23:26:40.411Z,6.57
2018-02-22T23:29:08.825Z,6.80
2018-02-22T23:31:37.899Z,6.67
2018-02-22T23:34:06.630Z,7.70
2018-02-22T23:36:35.046Z,7.43
2018-02-22T23:39:02.931Z,6.30
2018-02-22T23:44:30.867Z,6.85
2018-02-22T23:46:59.124Z,7.10
2018-02-22T23:49:28.126Z,6.13
2018-02-22T23:51:56.348Z,7.27
2018-02-22T23:54:24.559Z,6.50
2018-02-22T23:56:53.742Z,7.13
2018-02-22T23:59:21.984Z,7.00
